Time;durP1;ratioP1;P1;durP2;ratioP2;P2;SDS_P1;SDS_P2;PMS_P1;PMS_P2;Temp;Humidity;BMP_temperature;BMP_pressure;BME280_temperature;BME280_humidity;BME280_pressure;Samples;Min_cycle;Max_cycle;Signal;HPM_P1;HPM_P2
2023/06/12 00:02:05;;;;;;;0.80;0.60;;;;;;;;;;5016997;28;58767;-63
2023/06/12 00:04:30;;;;;;;0.73;0.73;;;;;;;;;;5020653;28;58073;-63
2023/06/12 00:06:56;;;;;;;0.80;0.80;;;;;;;;;;5018238;28;57851;-63
2023/06/12 00:09:21;;;;;;;0.60;0.52;;;;;;;;;;5021440;28;58243;-59
2023/06/12 00:11:46;;;;;;;0.50;0.50;;;;;;;;;;5018908;28;57957;-62
2023/06/12 00:14:11;;;;;;;0.80;0.80;;;;;;;;;;5019544;28;57922;-63
2023/06/12 00:16:37;;;;;;;0.87;0.70;;;;;;;;;;5020196;28;58009;-63
2023/06/12 00:19:03;;;;;;;0.70;0.70;;;;;;;;;;5019289;28;58165;-63
2023/06/12 00:21:28;;;;;;;0.77;0.77;;;;;;;;;;5022402;28;58871;-63
2023/06/12 00:23:53;;;;;;;0.80;0.80;;;;;;;;;;5022568;28;58165;-63
2023/06/12 00:26:18;;;;;;;1.13;0.67;;;;;;;;;;5021309;28;57717;-63
2023/06/12 00:28:45;;;;;;;1.73;0.93;;;;;;;;;;5024503;28;58293;-63
2023/06/12 00:31:10;;;;;;;0.73;0.68;;;;;;;;;;5027205;28;57848;-62
2023/06/12 00:33:36;;;;;;;0.63;0.63;;;;;;;;;;5024372;28;58107;-63
2023/06/12 00:36:01;;;;;;;0.63;0.63;;;;;;;;;;5026059;28;58373;-63
2023/06/12 00:38:26;;;;;;;0.70;0.57;;;;;;;;;;5023827;28;58432;-62
2023/06/12 00:40:52;;;;;;;0.90;0.80;;;;;;;;;;5026759;28;58035;-63
2023/06/12 00:43:17;;;;;;;0.65;0.65;;;;;;;;;;5025908;28;58066;-60
2023/06/12 00:45:42;;;;;;;0.70;0.70;;;;;;;;;;5023873;28;57841;-63
2023/06/12 00:48:07;;;;;;;1.10;0.70;;;;;;;;;;5026430;28;58562;-63
2023/06/12 00:50:34;;;;;;;0.50;0.50;;;;;;;;;;5025294;28;58367;-63
2023/06/12 00:52:59;;;;;;;0.63;0.63;;;;;;;;;;5025902;28;58195;-63
2023/06/12 00:55:25;;;;;;;0.73;0.73;;;;;;;;;;5024507;28;58034;-62
2023/06/12 00:57:51;;;;;;;0.93;0.60;;;;;;;;;;5027667;28;58049;-62
2023/06/12 01:00:17;;;;;;;0.68;0.68;;;;;;;;;;5022157;28;58542;-63
2023/06/12 01:02:44;;;;;;;0.85;0.85;;;;;;;;;;5021920;28;57951;-63
2023/06/12 01:05:11;;;;;;;0.97;0.67;;;;;;;;;;5020371;28;58084;-63
2023/06/12 01:07:40;;;;;;;0.75;0.75;;;;;;;;;;5020358;28;57858;-63
2023/06/12 01:10:10;;;;;;;0.80;0.70;;;;;;;;;;5023713;28;58255;-63
2023/06/12 01:12:35;;;;;;;0.70;0.70;;;;;;;;;;5022482;28;57836;-63
2023/06/12 01:15:00;;;;;;;0.85;0.85;;;;;;;;;;5023712;28;58373;-63
2023/06/12 01:17:27;;;;;;;0.90;0.90;;;;;;;;;;5029517;28;57934;-64
2023/06/12 01:19:52;;;;;;;0.60;0.55;;;;;;;;;;5025889;28;58406;-62
2023/06/12 01:22:20;;;;;;;0.97;0.90;;;;;;;;;;5023473;28;58081;-63
2023/06/12 01:25:05;;;;;;;0.75;0.75;;;;;;;;;;5022887;28;58068;-63
2023/06/12 01:27:32;;;;;;;0.57;0.57;;;;;;;;;;5024987;28;58538;-62
2023/06/12 01:30:16;;;;;;;0.70;0.70;;;;;;;;;;5019937;28;57947;-63
2023/06/12 01:32:41;;;;;;;1.13;1.02;;;;;;;;;;5022494;28;59071;-63
2023/06/12 01:35:11;;;;;;;0.70;0.70;;;;;;;;;;5019651;28;58572;-63
2023/06/12 01:37:54;;;;;;;0.65;0.65;;;;;;;;;;5018601;28;57793;-63
2023/06/12 01:40:21;;;;;;;0.60;0.60;;;;;;;;;;5024861;28;59255;-63
2023/06/12 01:42:46;;;;;;;1.55;1.45;;;;;;;;;;5020175;28;58437;-63
2023/06/12 01:45:11;;;;;;;0.77;0.77;;;;;;;;;;5022691;28;57586;-63
2023/06/12 01:47:37;;;;;;;0.63;0.60;;;;;;;;;;5025119;28;57809;-63
2023/06/12 01:50:02;;;;;;;0.60;0.60;;;;;;;;;;5023493;28;58047;-64
2023/06/12 01:52:28;;;;;;;0.75;0.73;;;;;;;;;;5023663;28;58838;-63
2023/06/12 01:54:57;;;;;;;0.85;0.80;;;;;;;;;;5023775;28;57878;-63
2023/06/12 01:57:23;;;;;;;0.63;0.63;;;;;;;;;;5023932;28;58073;-63
2023/06/12 01:59:48;;;;;;;0.63;0.63;;;;;;;;;;5026426;28;57942;-61
2023/06/12 02:02:13;;;;;;;0.65;0.60;;;;;;;;;;5024940;28;57768;-61
2023/06/12 02:04:39;;;;;;;0.75;0.75;;;;;;;;;;5029100;28;57590;-61
2023/06/12 02:07:04;;;;;;;0.73;0.73;;;;;;;;;;5028899;28;57718;-61
2023/06/12 02:09:30;;;;;;;0.70;0.70;;;;;;;;;;5022061;28;57629;-61
2023/06/12 02:11:55;;;;;;;0.40;0.40;;;;;;;;;;5023993;28;58039;-61
2023/06/12 02:14:20;;;;;;;1.20;0.70;;;;;;;;;;5026213;28;58172;-60
2023/06/12 02:16:45;;;;;;;0.67;0.67;;;;;;;;;;5027881;28;57785;-60
2023/06/12 02:19:11;;;;;;;0.83;0.83;;;;;;;;;;5025058;28;57959;-61
2023/06/12 02:21:36;;;;;;;0.77;0.77;;;;;;;;;;5026558;28;58145;-61
2023/06/12 02:24:01;;;;;;;0.60;0.60;;;;;;;;;;5022277;28;57812;-61
2023/06/12 02:26:26;;;;;;;0.85;0.70;;;;;;;;;;5019743;28;58068;-59
2023/06/12 02:29:09;;;;;;;1.05;1.05;;;;;;;;;;5026773;28;58182;-61
2023/06/12 02:31:35;;;;;;;1.00;0.77;;;;;;;;;;5025334;28;57994;-60
2023/06/12 02:34:00;;;;;;;0.50;0.50;;;;;;;;;;5028580;28;57735;-61
2023/06/12 02:36:25;;;;;;;0.93;0.70;;;;;;;;;;5028616;28;58012;-61
2023/06/12 02:38:51;;;;;;;0.50;0.50;;;;;;;;;;5027704;28;57907;-60
2023/06/12 02:41:16;;;;;;;0.68;0.68;;;;;;;;;;5026617;28;58488;-59
2023/06/12 02:43:41;;;;;;;0.60;0.60;;;;;;;;;;5023036;28;58258;-60
2023/06/12 02:46:06;;;;;;;1.00;0.73;;;;;;;;;;5024743;28;58112;-61
2023/06/12 02:48:31;;;;;;;0.90;0.90;;;;;;;;;;5020098;28;58140;-61
2023/06/12 02:50:57;;;;;;;0.63;0.63;;;;;;;;;;5024640;28;58008;-61
2023/06/12 02:53:22;;;;;;;1.10;1.05;;;;;;;;;;5025592;28;58437;-60
2023/06/12 02:55:49;;;;;;;0.77;0.68;;;;;;;;;;5026801;28;58002;-60
2023/06/12 02:58:15;;;;;;;0.80;0.80;;;;;;;;;;5029404;28;58240;-60
2023/06/12 03:00:40;;;;;;;0.50;0.50;;;;;;;;;;5025008;28;58196;-61
2023/06/12 03:03:05;;;;;;;0.65;0.65;;;;;;;;;;5028612;28;57761;-60
2023/06/12 03:05:30;;;;;;;1.10;0.85;;;;;;;;;;5025197;28;58357;-61
2023/06/12 03:07:55;;;;;;;0.53;0.53;;;;;;;;;;5025150;28;58115;-60
2023/06/12 03:10:20;;;;;;;0.90;0.90;;;;;;;;;;5025523;28;57980;-61
2023/06/12 03:12:46;;;;;;;0.85;0.70;;;;;;;;;;5020918;28;58685;-61
2023/06/12 03:15:14;;;;;;;0.77;0.77;;;;;;;;;;5022180;28;58187;-61
2023/06/12 03:17:39;;;;;;;0.50;0.50;;;;;;;;;;5022590;28;58275;-61
2023/06/12 03:20:06;;;;;;;1.00;0.90;;;;;;;;;;5022354;28;57774;-61
2023/06/12 03:22:31;;;;;;;0.82;0.82;;;;;;;;;;5023200;28;58125;-61
2023/06/12 03:24:56;;;;;;;0.60;0.60;;;;;;;;;;5024045;28;58179;-62
2023/06/12 03:27:22;;;;;;;1.02;1.00;;;;;;;;;;5021861;28;57864;-61
2023/06/12 03:29:48;;;;;;;0.80;0.60;;;;;;;;;;5027514;28;57829;-61
2023/06/12 03:32:13;;;;;;;0.60;0.60;;;;;;;;;;5027131;28;58062;-60
2023/06/12 03:34:38;;;;;;;1.13;1.03;;;;;;;;;;5027923;28;57943;-61
2023/06/12 03:37:03;;;;;;;0.63;0.63;;;;;;;;;;5026898;28;57948;-61
2023/06/12 03:39:29;;;;;;;1.03;0.70;;;;;;;;;;5023360;28;58587;-61
2023/06/12 03:41:56;;;;;;;0.82;0.82;;;;;;;;;;5022884;28;58064;-61
2023/06/12 03:44:21;;;;;;;0.73;0.73;;;;;;;;;;5026564;28;58238;-61
2023/06/12 03:46:46;;;;;;;0.70;0.70;;;;;;;;;;5021342;28;58133;-60
2023/06/12 03:49:12;;;;;;;0.63;0.63;;;;;;;;;;5021045;28;58167;-60
2023/06/12 03:51:37;;;;;;;1.33;0.90;;;;;;;;;;5026625;28;57746;-61
2023/06/12 03:54:02;;;;;;;0.60;0.60;;;;;;;;;;5024423;28;57831;-61
2023/06/12 03:56:27;;;;;;;0.70;0.70;;;;;;;;;;5027902;28;58171;-61
2023/06/12 03:58:52;;;;;;;1.20;1.10;;;;;;;;;;5024432;28;58650;-61
2023/06/12 04:01:17;;;;;;;0.90;0.90;;;;;;;;;;5024339;28;58117;-63
2023/06/12 04:03:44;;;;;;;1.53;0.93;;;;;;;;;;5030807;28;57977;-62
2023/06/12 04:06:09;;;;;;;1.13;0.98;;;;;;;;;;5028684;28;57897;-63
2023/06/12 04:08:37;;;;;;;0.63;0.60;;;;;;;;;;5025482;28;58195;-60
2023/06/12 04:11:03;;;;;;;0.60;0.60;;;;;;;;;;5025130;28;58667;-63
2023/06/12 04:13:28;;;;;;;0.73;0.68;;;;;;;;;;5025444;28;57850;-63
2023/06/12 04:15:55;;;;;;;1.10;1.08;;;;;;;;;;5028182;28;58161;-63
2023/06/12 04:18:21;;;;;;;0.88;0.80;;;;;;;;;;5021105;28;58604;-63
2023/06/12 04:20:46;;;;;;;0.77;0.77;;;;;;;;;;5024541;28;57801;-63
2023/06/12 04:23:11;;;;;;;0.83;0.83;;;;;;;;;;5026203;28;59097;-63
2023/06/12 04:25:37;;;;;;;0.70;0.70;;;;;;;;;;5028647;28;58843;-63
2023/06/12 04:28:03;;;;;;;0.63;0.63;;;;;;;;;;5024860;28;58174;-62
2023/06/12 04:30:31;;;;;;;0.60;0.60;;;;;;;;;;5025446;28;57798;-63
2023/06/12 04:32:56;;;;;;;0.80;0.80;;;;;;;;;;5023677;28;58221;-64
2023/06/12 04:35:22;;;;;;;0.70;0.70;;;;;;;;;;5023205;28;57820;-63
2023/06/12 04:37:48;;;;;;;0.70;0.70;;;;;;;;;;5024077;28;57799;-63
2023/06/12 04:40:14;;;;;;;0.77;0.77;;;;;;;;;;5021762;28;57937;-63
2023/06/12 04:42:41;;;;;;;0.85;0.60;;;;;;;;;;5024632;28;57784;-63
2023/06/12 04:45:08;;;;;;;0.98;0.98;;;;;;;;;;5026109;28;58090;-63
2023/06/12 04:47:36;;;;;;;0.70;0.70;;;;;;;;;;5027851;28;58159;-63
2023/06/12 04:50:01;;;;;;;3.70;1.25;;;;;;;;;;5024714;28;58417;-67
2023/06/12 04:52:26;;;;;;;4.05;2.58;;;;;;;;;;5023930;28;57992;-62
2023/06/12 04:54:52;;;;;;;2.73;2.30;;;;;;;;;;5025607;28;57805;-64
2023/06/12 04:57:18;;;;;;;4.35;2.40;;;;;;;;;;5024826;28;58563;-63
2023/06/12 04:59:44;;;;;;;5.65;2.50;;;;;;;;;;5027213;28;57859;-60
2023/06/12 05:02:10;;;;;;;7.35;3.60;;;;;;;;;;5021235;28;58268;-61
2023/06/12 05:04:38;;;;;;;3.63;2.17;;;;;;;;;;5028098;28;61639;-63
2023/06/12 05:07:05;;;;;;;2.17;1.98;;;;;;;;;;5026504;28;58136;-63
2023/06/12 05:09:31;;;;;;;3.97;2.33;;;;;;;;;;5026294;28;58500;-63
2023/06/12 05:11:56;;;;;;;6.10;2.90;;;;;;;;;;5025659;28;58434;-63
2023/06/12 05:14:21;;;;;;;7.13;3.15;;;;;;;;;;5025266;28;57711;-63
2023/06/12 05:16:46;;;;;;;3.67;2.65;;;;;;;;;;5027449;28;58036;-63
2023/06/12 05:19:12;;;;;;;4.55;2.50;;;;;;;;;;5029043;28;58082;-63
2023/06/12 05:21:38;;;;;;;3.43;2.80;;;;;;;;;;5030496;28;58535;-63
2023/06/12 05:24:03;;;;;;;18.58;3.10;;;;;;;;;;5026273;28;58283;-63
2023/06/12 05:26:29;;;;;;;3.80;1.90;;;;;;;;;;5027803;28;58044;-63
2023/06/12 05:28:54;;;;;;;5.03;2.10;;;;;;;;;;5030096;28;58280;-64
2023/06/12 05:31:19;;;;;;;3.07;2.33;;;;;;;;;;5028391;28;57907;-63
2023/06/12 05:33:44;;;;;;;3.00;2.08;;;;;;;;;;5031201;28;57966;-62
2023/06/12 05:36:10;;;;;;;5.57;2.20;;;;;;;;;;5025828;28;58186;-63
2023/06/12 05:38:35;;;;;;;5.13;2.78;;;;;;;;;;5028500;28;58929;-63
2023/06/12 05:41:00;;;;;;;3.03;2.50;;;;;;;;;;5029755;28;59101;-63
2023/06/12 05:43:25;;;;;;;3.15;2.30;;;;;;;;;;5027326;28;57890;-63
2023/06/12 05:45:50;;;;;;;1.92;1.42;;;;;;;;;;5025825;28;57990;-63
2023/06/12 05:48:18;;;;;;;2.83;2.27;;;;;;;;;;5029053;28;58361;-64
2023/06/12 05:50:43;;;;;;;2.83;2.07;;;;;;;;;;5027692;28;57970;-63
2023/06/12 05:53:08;;;;;;;3.30;1.65;;;;;;;;;;5029422;28;57862;-63
2023/06/12 05:55:33;;;;;;;2.43;1.70;;;;;;;;;;5027246;28;57742;-63
2023/06/12 05:57:58;;;;;;;1.87;1.43;;;;;;;;;;5023589;28;57934;-63
2023/06/12 06:00:24;;;;;;;3.80;2.13;;;;;;;;;;5026829;28;58188;-63
2023/06/12 06:02:49;;;;;;;3.87;3.00;;;;;;;;;;5026910;28;57784;-63
2023/06/12 06:05:16;;;;;;;5.63;3.28;;;;;;;;;;5025592;28;58195;-63
2023/06/12 06:07:41;;;;;;;5.03;2.90;;;;;;;;;;5020758;28;58380;-61
2023/06/12 06:10:07;;;;;;;4.18;2.72;;;;;;;;;;5026559;28;57995;-63
2023/06/12 06:12:32;;;;;;;5.65;2.35;;;;;;;;;;5023490;28;58412;-64
2023/06/12 06:14:57;;;;;;;7.47;3.93;;;;;;;;;;5028274;28;58133;-64
2023/06/12 06:17:23;;;;;;;5.32;3.15;;;;;;;;;;5025120;28;58485;-62
2023/06/12 06:19:48;;;;;;;8.43;3.88;;;;;;;;;;5025971;28;58157;-63
2023/06/12 06:22:17;;;;;;;6.43;3.70;;;;;;;;;;5025829;28;57987;-63
2023/06/12 06:24:42;;;;;;;10.15;4.10;;;;;;;;;;5026047;28;58200;-62
2023/06/12 06:27:08;;;;;;;8.68;3.08;;;;;;;;;;5027510;28;60366;-63
2023/06/12 06:29:33;;;;;;;6.32;4.07;;;;;;;;;;5025223;28;58488;-63
2023/06/12 06:31:58;;;;;;;4.82;3.03;;;;;;;;;;5026878;28;57905;-63
2023/06/12 06:34:25;;;;;;;4.20;2.72;;;;;;;;;;5028331;28;58363;-63
2023/06/12 06:36:50;;;;;;;5.90;3.13;;;;;;;;;;5026199;28;58647;-63
2023/06/12 06:39:15;;;;;;;3.27;2.50;;;;;;;;;;5024010;28;58221;-63
2023/06/12 06:41:40;;;;;;;8.27;3.90;;;;;;;;;;5024372;28;59812;-63
2023/06/12 06:44:06;;;;;;;4.50;3.13;;;;;;;;;;5027856;28;57724;-63
2023/06/12 06:46:31;;;;;;;4.03;2.70;;;;;;;;;;5028090;28;57957;-63
2023/06/12 06:48:56;;;;;;;12.20;4.07;;;;;;;;;;5026435;28;57856;-61
2023/06/12 06:51:21;;;;;;;13.57;2.97;;;;;;;;;;5022956;28;58167;-64
2023/06/12 06:53:46;;;;;;;4.23;2.00;;;;;;;;;;5026516;28;58164;-64
2023/06/12 06:56:11;;;;;;;2.97;2.20;;;;;;;;;;5026432;28;58035;-64
2023/06/12 06:58:37;;;;;;;3.63;2.77;;;;;;;;;;5028209;28;58265;-64
2023/06/12 07:01:02;;;;;;;4.03;2.70;;;;;;;;;;5026569;28;57732;-64
2023/06/12 07:03:27;;;;;;;3.10;2.45;;;;;;;;;;5022959;28;58431;-64
2023/06/12 07:05:52;;;;;;;2.53;2.23;;;;;;;;;;5027465;28;58450;-63
2023/06/12 07:08:18;;;;;;;5.95;2.55;;;;;;;;;;5026294;28;58178;-64
2023/06/12 07:10:43;;;;;;;4.90;2.38;;;;;;;;;;5026671;28;57899;-64
2023/06/12 07:13:08;;;;;;;5.20;3.00;;;;;;;;;;5026393;28;57985;-67
2023/06/12 07:15:33;;;;;;;4.03;2.57;;;;;;;;;;5026347;28;57908;-67
2023/06/12 07:17:58;;;;;;;4.37;3.00;;;;;;;;;;5025545;28;58340;-67
2023/06/12 07:20:23;;;;;;;6.35;2.92;;;;;;;;;;5026138;28;57844;-63
2023/06/12 07:22:48;;;;;;;4.32;2.70;;;;;;;;;;5025362;28;58016;-68
2023/06/12 07:25:14;;;;;;;2.30;2.10;;;;;;;;;;5026311;28;57879;-68
2023/06/12 07:27:39;;;;;;;5.57;2.65;;;;;;;;;;5026513;28;57826;-66
2023/06/12 07:30:05;;;;;;;2.77;2.40;;;;;;;;;;5026939;28;57981;-68
2023/06/12 07:32:31;;;;;;;2.45;2.25;;;;;;;;;;5027449;28;59315;-62
2023/06/12 07:34:56;;;;;;;4.77;3.13;;;;;;;;;;5027846;28;58114;-69
2023/06/12 07:37:22;;;;;;;6.13;2.67;;;;;;;;;;5029753;28;58120;-63
2023/06/12 07:39:47;;;;;;;3.95;3.05;;;;;;;;;;5032093;28;58155;-67
2023/06/12 07:42:13;;;;;;;3.92;2.35;;;;;;;;;;5030109;28;58015;-62
2023/06/12 07:44:40;;;;;;;5.85;2.88;;;;;;;;;;5029797;28;59251;-64
2023/06/12 07:47:05;;;;;;;2.95;2.60;;;;;;;;;;5029651;28;58151;-68
2023/06/12 07:49:30;;;;;;;3.63;2.27;;;;;;;;;;5032036;28;58045;-68
2023/06/12 07:51:56;;;;;;;2.45;2.25;;;;;;;;;;5029542;28;57762;-64
2023/06/12 07:54:21;;;;;;;3.27;2.47;;;;;;;;;;5028296;28;58777;-63
2023/06/12 07:56:46;;;;;;;2.92;2.03;;;;;;;;;;5031978;28;58086;-63
2023/06/12 07:59:12;;;;;;;3.28;2.33;;;;;;;;;;5030811;28;58951;-66
2023/06/12 08:01:37;;;;;;;4.32;2.55;;;;;;;;;;5028738;28;57922;-64
2023/06/12 08:04:05;;;;;;;3.13;2.47;;;;;;;;;;5031415;28;57372;-62
2023/06/12 08:06:33;;;;;;;3.60;2.17;;;;;;;;;;5027568;28;59242;-63
2023/06/12 08:08:58;;;;;;;3.72;2.67;;;;;;;;;;5029118;28;58038;-68
2023/06/12 08:11:23;;;;;;;3.40;2.77;;;;;;;;;;5028512;28;58048;-68
2023/06/12 08:13:49;;;;;;;2.58;2.05;;;;;;;;;;5029631;28;58255;-66
2023/06/12 08:16:14;;;;;;;2.08;1.90;;;;;;;;;;5031237;28;57802;-67
2023/06/12 08:18:40;;;;;;;1.80;1.70;;;;;;;;;;5028680;28;57971;-66
2023/06/12 08:21:05;;;;;;;2.95;2.15;;;;;;;;;;5028137;28;58104;-67
2023/06/12 08:23:31;;;;;;;3.05;1.92;;;;;;;;;;5028454;28;58136;-67
2023/06/12 08:25:56;;;;;;;2.23;1.90;;;;;;;;;;5030447;28;58573;-67
2023/06/12 08:28:21;;;;;;;2.50;2.30;;;;;;;;;;5030917;28;57937;-68
2023/06/12 08:30:46;;;;;;;2.20;2.00;;;;;;;;;;5027313;28;57694;-61
2023/06/12 08:33:11;;;;;;;1.70;1.60;;;;;;;;;;5029883;28;57813;-63
2023/06/12 08:35:36;;;;;;;3.43;2.43;;;;;;;;;;5029448;28;57879;-64
2023/06/12 08:38:01;;;;;;;2.33;2.13;;;;;;;;;;5030090;28;57994;-63
2023/06/12 08:40:27;;;;;;;4.18;2.30;;;;;;;;;;5027664;28;58101;-60
2023/06/12 08:42:52;;;;;;;3.65;2.40;;;;;;;;;;5030166;28;58045;-70
2023/06/12 08:45:22;;;;;;;3.45;2.08;;;;;;;;;;5028728;28;58006;-69
2023/06/12 08:47:48;;;;;;;2.13;1.90;;;;;;;;;;5029566;28;58014;-69
2023/06/12 08:50:16;;;;;;;2.03;1.80;;;;;;;;;;5029388;28;58053;-67
2023/06/12 08:52:41;;;;;;;3.20;2.05;;;;;;;;;;5027112;28;58555;-65
2023/06/12 08:55:10;;;;;;;2.03;1.90;;;;;;;;;;5030228;28;58155;-67
2023/06/12 08:57:35;;;;;;;;;;;;;;;;;;5027819;28;58022;-67
2023/06/12 09:00:00;;;;;;;1.92;1.73;;;;;;;;;;5029628;28;57970;-67
2023/06/12 09:02:25;;;;;;;3.60;2.30;;;;;;;;;;5027946;28;57822;-68
2023/06/12 09:04:50;;;;;;;2.33;2.13;;;;;;;;;;5030240;28;57894;-65
2023/06/12 09:07:17;;;;;;;8.68;2.05;;;;;;;;;;5028510;28;57899;-67
2023/06/12 09:09:45;;;;;;;2.00;1.83;;;;;;;;;;5029594;28;58228;-62
2023/06/12 09:12:12;;;;;;;1.70;1.40;;;;;;;;;;5028535;28;58443;-69
2023/06/12 09:14:37;;;;;;;2.17;1.85;;;;;;;;;;5029465;28;57999;-68
2023/06/12 09:17:03;;;;;;;2.57;2.20;;;;;;;;;;5028132;28;57778;-65
2023/06/12 09:19:41;;;;;;;1.93;1.83;;;;;;;;;;5027435;28;57713;-67
2023/06/12 09:22:07;;;;;;;2.47;2.08;;;;;;;;;;5028063;28;58210;-66
2023/06/12 09:24:32;;;;;;;5.07;2.53;;;;;;;;;;5027643;28;58084;-67
2023/06/12 09:26:57;;;;;;;2.17;2.00;;;;;;;;;;5030129;28;58465;-64
2023/06/12 09:29:30;;;;;;;3.20;2.20;;;;;;;;;;5029230;28;58129;-63
2023/06/12 09:31:58;;;;;;;2.38;2.17;;;;;;;;;;5026879;28;57903;-69
2023/06/12 09:34:24;;;;;;;2.35;1.88;;;;;;;;;;5027021;28;58434;-67
2023/06/12 09:36:49;;;;;;;2.45;2.20;;;;;;;;;;5029544;28;58211;-69
2023/06/12 09:39:17;;;;;;;2.78;2.20;;;;;;;;;;5028807;28;57745;-68
2023/06/12 09:41:42;;;;;;;;;;;;;;;;;;5029627;28;58235;-68
2023/06/12 09:44:07;;;;;;;3.85;1.92;;;;;;;;;;5029953;28;58008;-68
2023/06/12 09:46:32;;;;;;;2.38;2.03;;;;;;;;;;5027472;28;57790;-62
2023/06/12 09:48:58;;;;;;;1.83;1.50;;;;;;;;;;5027959;28;57541;-69
2023/06/12 09:51:23;;;;;;;2.17;1.93;;;;;;;;;;5026645;28;58251;-68
2023/06/12 09:53:50;;;;;;;2.05;1.88;;;;;;;;;;5030474;28;58192;-65
2023/06/12 09:56:16;;;;;;;2.47;2.22;;;;;;;;;;5029725;28;58489;-68
2023/06/12 09:58:46;;;;;;;2.60;1.88;;;;;;;;;;5028677;28;58224;-67
2023/06/12 10:01:11;;;;;;;2.15;1.95;;;;;;;;;;5027696;28;57701;-70
2023/06/12 10:03:38;;;;;;;1.93;1.83;;;;;;;;;;5028024;28;57777;-71
2023/06/12 10:06:05;;;;;;;2.53;1.50;;;;;;;;;;5029366;28;58594;-70
2023/06/12 10:08:30;;;;;;;2.08;1.90;;;;;;;;;;5026306;28;58151;-69
2023/06/12 10:10:55;;;;;;;2.03;1.53;;;;;;;;;;5027216;28;58049;-70
2023/06/12 10:13:20;;;;;;;2.70;1.87;;;;;;;;;;5029231;28;58036;-69
2023/06/12 10:15:46;;;;;;;1.90;1.73;;;;;;;;;;5028886;28;57701;-70
2023/06/12 10:18:11;;;;;;;3.22;2.67;;;;;;;;;;5026698;28;57769;-68
2023/06/12 10:20:37;;;;;;;2.30;2.13;;;;;;;;;;5029269;28;57978;-69
2023/06/12 10:23:02;;;;;;;2.33;1.83;;;;;;;;;;5029486;28;57511;-68
2023/06/12 10:25:29;;;;;;;1.50;1.40;;;;;;;;;;5027102;28;58186;-67
2023/06/12 10:27:55;;;;;;;1.77;1.67;;;;;;;;;;5027840;28;57453;-65
2023/06/12 10:30:20;;;;;;;1.80;1.70;;;;;;;;;;5025933;28;59245;-66
2023/06/12 10:32:46;;;;;;;2.53;2.33;;;;;;;;;;5028889;28;57919;-64
2023/06/12 10:35:11;;;;;;;2.78;1.70;;;;;;;;;;5027503;28;57565;-69
2023/06/12 10:37:48;;;;;;;1.80;1.67;;;;;;;;;;5028466;28;57813;-68
2023/06/12 10:40:20;;;;;;;1.98;1.88;;;;;;;;;;5027043;28;57834;-65
2023/06/12 10:42:47;;;;;;;1.92;1.80;;;;;;;;;;5026218;28;58131;-65
2023/06/12 10:45:15;;;;;;;1.87;1.77;;;;;;;;;;5025696;28;58462;-64
2023/06/12 10:47:41;;;;;;;1.70;1.60;;;;;;;;;;5028002;28;58328;-65
2023/06/12 10:50:06;;;;;;;1.90;1.80;;;;;;;;;;5026447;28;57836;-66
2023/06/12 10:52:31;;;;;;;2.03;1.85;;;;;;;;;;5027296;28;57865;-67
2023/06/12 10:55:17;;;;;;;2.22;2.03;;;;;;;;;;5027180;28;58106;-65
2023/06/12 10:57:49;;;;;;;1.90;1.80;;;;;;;;;;5028374;28;57800;-65
2023/06/12 11:00:17;;;;;;;4.03;2.20;;;;;;;;;;5027985;28;58200;-65
2023/06/12 11:02:44;;;;;;;2.00;1.85;;;;;;;;;;5026193;28;58449;-64
2023/06/12 11:05:09;;;;;;;1.67;1.58;;;;;;;;;;5023726;28;58184;-65
2023/06/12 11:07:35;;;;;;;2.07;1.67;;;;;;;;;;5028079;28;57959;-63
2023/06/12 11:10:09;;;;;;;1.92;1.60;;;;;;;;;;5026264;28;58190;-65
2023/06/12 11:12:35;;;;;;;1.65;1.52;;;;;;;;;;5027814;28;59927;-65
2023/06/12 11:15:00;;;;;;;2.50;2.00;;;;;;;;;;5025574;28;58007;-64
2023/06/12 11:17:27;;;;;;;1.92;1.75;;;;;;;;;;5016079;28;58014;-65
2023/06/12 11:20:00;;;;;;;3.25;1.75;;;;;;;;;;5020398;28;58059;-65
2023/06/12 11:22:25;;;;;;;8.55;2.55;;;;;;;;;;5019691;28;58195;-65
2023/06/12 11:24:57;;;;;;;1.77;1.67;;;;;;;;;;5018733;28;58040;-66
2023/06/12 11:27:23;;;;;;;1.73;1.63;;;;;;;;;;5018253;28;57871;-65
2023/06/12 11:29:48;;;;;;;8.13;2.63;;;;;;;;;;5021529;28;58220;-65
2023/06/12 11:32:13;;;;;;;1.80;1.70;;;;;;;;;;5019576;28;57905;-65
2023/06/12 11:34:38;;;;;;;1.80;1.70;;;;;;;;;;5023658;28;57769;-65
2023/06/12 11:37:20;;;;;;;1.67;1.58;;;;;;;;;;5019669;28;58585;-65
2023/06/12 11:39:45;;;;;;;2.30;2.13;;;;;;;;;;5023664;28;57956;-65
2023/06/12 11:42:11;;;;;;;2.57;1.77;;;;;;;;;;5026366;28;58150;-66
2023/06/12 11:44:37;;;;;;;1.80;1.70;;;;;;;;;;5024649;28;58227;-65
2023/06/12 11:47:02;;;;;;;1.92;1.83;;;;;;;;;;5023976;28;57872;-65
2023/06/12 11:49:31;;;;;;;2.35;1.60;;;;;;;;;;5024008;28;58099;-65
2023/06/12 11:51:56;;;;;;;1.60;1.50;;;;;;;;;;5028200;28;57789;-66
2023/06/12 11:54:21;;;;;;;2.20;1.80;;;;;;;;;;5024222;28;57721;-65
2023/06/12 11:56:47;;;;;;;4.53;2.03;;;;;;;;;;5024285;28;57463;-66
2023/06/12 11:59:13;;;;;;;2.20;2.10;;;;;;;;;;5024812;28;58078;-65
2023/06/12 12:01:38;;;;;;;1.90;1.80;;;;;;;;;;5023214;28;58503;-65
2023/06/12 12:04:05;;;;;;;2.53;1.70;;;;;;;;;;5027076;28;58681;-68
2023/06/12 12:06:31;;;;;;;3.75;1.70;;;;;;;;;;5026191;28;58016;-67
2023/06/12 12:08:56;;;;;;;1.80;1.70;;;;;;;;;;5025516;28;57843;-69
2023/06/12 12:11:22;;;;;;;1.58;1.48;;;;;;;;;;5025694;28;57804;-67
2023/06/12 12:13:48;;;;;;;2.42;2.10;;;;;;;;;;5027352;28;58293;-62
2023/06/12 12:16:13;;;;;;;2.53;2.10;;;;;;;;;;5028133;28;59087;-62
2023/06/12 12:18:41;;;;;;;4.20;2.47;;;;;;;;;;5023369;28;59490;-63
2023/06/12 12:21:12;;;;;;;2.75;2.55;;;;;;;;;;5027249;28;57770;-65
2023/06/12 12:23:37;;;;;;;3.28;1.90;;;;;;;;;;5030063;28;57749;-68
2023/06/12 12:26:02;;;;;;;3.72;2.38;;;;;;;;;;5031031;28;58127;-67
2023/06/12 12:28:28;;;;;;;2.63;2.43;;;;;;;;;;5029344;28;57588;-68
2023/06/12 12:30:53;;;;;;;7.93;2.23;;;;;;;;;;5029487;28;58494;-65
2023/06/12 12:33:18;;;;;;;3.93;2.57;;;;;;;;;;5030544;28;58010;-67
2023/06/12 12:35:43;;;;;;;1.87;1.70;;;;;;;;;;5031557;28;58066;-67
2023/06/12 12:38:08;;;;;;;5.30;2.77;;;;;;;;;;5029649;28;57690;-63
2023/06/12 12:40:34;;;;;;;3.90;2.00;;;;;;;;;;5027173;28;59481;-61
2023/06/12 12:42:59;;;;;;;4.47;2.35;;;;;;;;;;5028452;28;58714;-63
2023/06/12 12:45:26;;;;;;;4.43;2.73;;;;;;;;;;5028828;28;57809;-64
2023/06/12 12:47:52;;;;;;;6.10;2.30;;;;;;;;;;5027722;28;57576;-64
2023/06/12 12:50:18;;;;;;;4.13;1.90;;;;;;;;;;5024732;28;58515;-64
2023/06/12 12:52:44;;;;;;;7.90;2.83;;;;;;;;;;5028658;28;57948;-64
2023/06/12 12:55:10;;;;;;;5.60;2.60;;;;;;;;;;5028234;28;57982;-64
2023/06/12 12:57:38;;;;;;;3.88;2.08;;;;;;;;;;5027283;28;58589;-64
2023/06/12 13:00:06;;;;;;;3.80;1.95;;;;;;;;;;5022892;28;57704;-64
2023/06/12 13:02:32;;;;;;;3.17;2.10;;;;;;;;;;5027691;28;58141;-64
2023/06/12 13:04:57;;;;;;;1.73;1.50;;;;;;;;;;5028284;28;57842;-63
2023/06/12 13:07:22;;;;;;;3.55;2.42;;;;;;;;;;5028221;28;58068;-64
2023/06/12 13:09:48;;;;;;;3.00;2.17;;;;;;;;;;5025519;28;58114;-64
2023/06/12 13:12:13;;;;;;;2.95;2.00;;;;;;;;;;5025476;28;58177;-63
2023/06/12 13:14:38;;;;;;;3.05;1.83;;;;;;;;;;5027709;28;57888;-64
2023/06/12 13:17:04;;;;;;;5.90;2.03;;;;;;;;;;5029164;28;57881;-64
2023/06/12 13:19:29;;;;;;;3.40;2.25;;;;;;;;;;5024271;28;58066;-69
2023/06/12 13:21:54;;;;;;;4.60;2.20;;;;;;;;;;5026131;28;57788;-66
2023/06/12 13:24:19;;;;;;;2.80;1.63;;;;;;;;;;5028147;28;58046;-64
2023/06/12 13:26:44;;;;;;;5.05;1.75;;;;;;;;;;5029134;28;57667;-63
2023/06/12 13:29:10;;;;;;;2.90;1.83;;;;;;;;;;5028056;28;57590;-63
2023/06/12 13:31:35;;;;;;;2.40;1.70;;;;;;;;;;5026850;28;57916;-63
2023/06/12 13:34:00;;;;;;;1.85;1.67;;;;;;;;;;5024926;28;58179;-63
2023/06/12 13:36:25;;;;;;;2.10;1.77;;;;;;;;;;5026644;28;57740;-63
2023/06/12 13:38:50;;;;;;;4.13;1.30;;;;;;;;;;5028520;28;58145;-64
2023/06/12 13:41:16;;;;;;;2.27;1.90;;;;;;;;;;5027301;28;57906;-64
2023/06/12 13:43:42;;;;;;;2.08;1.85;;;;;;;;;;5026949;28;57758;-65
2023/06/12 13:46:07;;;;;;;2.83;2.15;;;;;;;;;;5028738;28;57679;-62
2023/06/12 13:48:32;;;;;;;3.00;1.57;;;;;;;;;;5026746;28;57939;-65
2023/06/12 13:50:59;;;;;;;3.97;2.77;;;;;;;;;;5029164;28;58373;-69
2023/06/12 13:53:25;;;;;;;2.25;1.70;;;;;;;;;;5029155;28;57791;-69
2023/06/12 13:55:50;;;;;;;3.25;2.35;;;;;;;;;;5029568;28;57855;-63
2023/06/12 13:58:15;;;;;;;1.88;1.75;;;;;;;;;;5029943;28;57786;-62
2023/06/12 14:00:41;;;;;;;6.78;2.53;;;;;;;;;;5028462;28;57813;-66
2023/06/12 14:03:07;;;;;;;5.43;2.03;;;;;;;;;;5029174;28;57712;-66
2023/06/12 14:05:32;;;;;;;3.67;2.05;;;;;;;;;;5028503;28;58062;-66
2023/06/12 14:07:57;;;;;;;2.00;1.80;;;;;;;;;;5029580;28;58033;-64
2023/06/12 14:10:23;;;;;;;2.63;1.83;;;;;;;;;;5029806;28;58533;-65
2023/06/12 14:12:49;;;;;;;2.63;2.03;;;;;;;;;;5026093;28;58105;-62
2023/06/12 14:15:14;;;;;;;1.85;1.60;;;;;;;;;;5028513;28;58448;-63
2023/06/12 14:17:39;;;;;;;3.17;1.73;;;;;;;;;;5030504;28;58116;-63
2023/06/12 14:20:05;;;;;;;3.83;1.70;;;;;;;;;;5025152;28;57910;-63
2023/06/12 14:22:31;;;;;;;4.18;1.67;;;;;;;;;;5029340;28;58413;-64
2023/06/12 14:24:56;;;;;;;2.47;1.73;;;;;;;;;;5029081;28;58197;-68
2023/06/12 14:27:21;;;;;;;4.20;2.40;;;;;;;;;;5029293;28;57761;-64
2023/06/12 14:29:47;;;;;;;3.97;1.88;;;;;;;;;;5023471;28;57937;-60
2023/06/12 14:32:12;;;;;;;2.20;1.58;;;;;;;;;;5028692;28;57954;-68
2023/06/12 14:34:37;;;;;;;3.90;1.48;;;;;;;;;;5027907;28;57695;-63
2023/06/12 14:37:02;;;;;;;2.27;1.93;;;;;;;;;;5029102;28;57857;-63